createdAt,value
2019-03-12T00:00:00.019Z,99339.59
2019-03-12T00:02:29.143Z,99338.63
2019-03-12T00:04:57.670Z,99347.55
2019-03-12T00:07:26.289Z,99345.52
2019-03-12T00:09:54.687Z,99353.17
2019-03-12T00:12:22.636Z,99358.36
2019-03-12T00:14:51.170Z,99354.78
2019-03-12T00:17:19.224Z,99350.83
2019-03-12T00:19:47.572Z,99357.52
2019-03-12T00:22:15.642Z,99364.56
2019-03-12T00:24:43.707Z,99361.86
2019-03-12T00:27:11.789Z,99358.71
2019-03-12T00:29:39.933Z,99368.37
2019-03-12T00:32:09.208Z,99377.01
2019-03-12T00:34:39.587Z,99383.28
2019-03-12T00:37:08.202Z,99392.49
2019-03-12T00:39:36.518Z,99388.84
2019-03-12T00:42:04.547Z,99395.59
2019-03-12T00:44:32.621Z,99401.93
2019-03-12T00:47:00.898Z,99401.50
2019-03-12T00:49:29.007Z,99408.00
2019-03-12T00:51:57.071Z,99409.22
2019-03-12T00:54:25.385Z,99409.86
2019-03-12T00:56:54.221Z,99409.88
2019-03-12T00:59:22.479Z,99414.69
2019-03-12T01:01:50.594Z,99409.59
2019-03-12T01:04:18.678Z,99415.47
2019-03-12T01:06:46.689Z,99412.58
2019-03-12T01:09:14.919Z,99412.85
2019-03-12T01:11:42.965Z,99408.67
2019-03-12T01:14:11.043Z,99408.00
2019-03-12T01:16:39.020Z,99412.42
2019-03-12T01:19:07.098Z,99406.24
2019-03-12T01:21:35.161Z,99405.32
2019-03-12T01:24:03.558Z,99407.45
2019-03-12T01:26:32.157Z,99409.22
2019-03-12T01:29:00.635Z,99414.39
2019-03-12T01:31:29.039Z,99417.34
2019-03-12T01:33:57.128Z,99419.31
2019-03-12T01:36:25.512Z,99424.25
2019-03-12T01:38:53.563Z,99427.45
2019-03-12T01:41:21.619Z,99431.63
2019-03-12T01:43:49.638Z,99439.75
2019-03-12T01:46:17.849Z,99441.38
2019-03-12T01:48:45.968Z,99438.94
2019-03-12T01:51:14.005Z,99439.56
2019-03-12T01:53:42.053Z,99438.52
2019-03-12T01:56:10.075Z,99440.41
2019-03-12T01:58:38.112Z,99434.85
2019-03-12T02:01:06.217Z,99438.05
2019-03-12T02:03:34.286Z,99430.15
2019-03-12T02:06:02.473Z,99425.30
2019-03-12T02:08:30.710Z,99431.34
2019-03-12T02:10:58.779Z,99424.71
2019-03-12T02:13:26.752Z,99404.73
2019-03-12T02:15:54.957Z,99420.84
2019-03-12T02:18:23.041Z,99425.03
2019-03-12T02:20:51.087Z,99427.64
2019-03-12T02:23:19.633Z,99421.27
2019-03-12T02:25:48.766Z,99418.29
2019-03-12T02:28:16.956Z,99425.17
2019-03-12T02:30:45.158Z,99425.38
2019-03-12T02:33:13.268Z,99425.88
2019-03-12T02:35:41.770Z,99429.49
2019-03-12T02:38:09.964Z,99429.37
2019-03-12T02:40:39.072Z,99428.68
2019-03-12T02:43:07.160Z,99428.59
2019-03-12T02:45:35.654Z,99426.73
2019-03-12T02:48:07.053Z,99424.65
2019-03-12T02:50:37.182Z,99428.72
2019-03-12T02:53:05.672Z,99421.33
2019-03-12T02:55:33.900Z,99416.48
2019-03-12T02:58:02.262Z,99411.74
2019-03-12T03:00:30.311Z,99415.77
2019-03-12T03:02:58.424Z,99417.42
2019-03-12T03:05:26.533Z,99419.32
2019-03-12T03:08:06.627Z,99417.80
2019-03-12T03:10:34.734Z,99416.34
2019-03-12T03:13:03.099Z,99420.14
2019-03-12T03:15:41.801Z,99422.89
2019-03-12T03:18:10.595Z,99418.45
2019-03-12T03:20:38.777Z,99424.98
2019-03-12T03:23:07.086Z,99423.69
2019-03-12T03:25:35.085Z,99422.05
2019-03-12T03:28:03.200Z,99425.67
2019-03-12T03:30:31.345Z,99429.08
2019-03-12T03:32:59.506Z,99427.53
2019-03-12T03:35:28.540Z,99427.86
2019-03-12T03:37:56.681Z,99428.52
2019-03-12T03:40:24.754Z,99431.67
2019-03-12T03:42:52.981Z,99422.28
2019-03-12T03:45:20.875Z,99419.63
2019-03-12T03:47:48.841Z,99416.45
2019-03-12T03:50:16.948Z,99416.11
2019-03-12T03:52:45.247Z,99417.31
2019-03-12T03:55:14.963Z,99417.98
2019-03-12T03:57:43.368Z,99425.23
2019-03-12T04:00:17.748Z,99421.05
2019-03-12T04:02:46.046Z,99420.14
2019-03-12T04:05:15.979Z,99422.13
2019-03-12T04:07:44.334Z,99424.03
2019-03-12T04:10:12.716Z,99421.95
2019-03-12T04:12:40.671Z,99420.48
2019-03-12T04:15:09.580Z,99425.88
2019-03-12T04:17:37.597Z,99419.08
2019-03-12T04:20:06.107Z,99418.99
2019-03-12T04:22:34.094Z,99412.03
2019-03-12T04:25:02.487Z,99418.39
2019-03-12T04:27:30.484Z,99413.64
2019-03-12T04:29:58.864Z,99419.88
2019-03-12T04:32:26.936Z,99411.50
2019-03-12T04:34:54.953Z,99411.78
2019-03-12T04:37:23.216Z,99411.91
2019-03-12T04:39:51.242Z,99402.91
2019-03-12T04:42:19.263Z,99407.17
2019-03-12T04:44:47.665Z,99400.92
2019-03-12T04:47:15.677Z,99401.55
2019-03-12T04:49:43.889Z,99402.77
2019-03-12T04:52:11.982Z,99398.36
2019-03-12T04:54:40.077Z,99392.02
2019-03-12T04:57:08.336Z,99393.41
2019-03-12T04:59:37.574Z,99397.33
2019-03-12T05:02:05.699Z,99395.69
2019-03-12T05:04:33.673Z,99393.91
2019-03-12T05:07:02.721Z,99396.94
2019-03-12T05:09:31.054Z,99389.82
2019-03-12T05:11:59.048Z,99389.75
2019-03-12T05:14:34.524Z,99395.28
2019-03-12T05:17:14.681Z,99388.14
2019-03-12T05:19:44.850Z,99393.27
2019-03-12T05:22:13.688Z,99387.72
2019-03-12T05:24:41.818Z,99392.87
2019-03-12T05:27:10.047Z,99390.76
2019-03-12T05:29:38.041Z,99390.05
2019-03-12T05:32:06.387Z,99382.17
2019-03-12T05:34:34.717Z,99380.14
2019-03-12T05:37:02.778Z,99378.58
2019-03-12T05:39:30.860Z,99375.20
2019-03-12T05:41:59.282Z,99370.46
2019-03-12T05:44:27.757Z,99371.38
2019-03-12T05:46:55.908Z,99369.34
2019-03-12T05:49:23.920Z,99365.17
2019-03-12T05:51:51.839Z,99369.34
2019-03-12T05:54:19.844Z,99361.00
2019-03-12T05:56:48.060Z,99360.52
2019-03-12T05:59:16.292Z,99359.24
2019-03-12T06:01:46.659Z,99354.61
2019-03-12T06:04:14.277Z,99356.27
2019-03-12T06:06:42.314Z,99351.20
2019-03-12T06:09:12.369Z,99349.52
2019-03-12T06:11:40.709Z,99351.20
2019-03-12T06:14:09.897Z,99348.59
2019-03-12T06:16:38.685Z,99337.84
2019-03-12T06:19:07.063Z,99348.19
2019-03-12T06:21:35.074Z,99333.26
2019-03-12T06:24:03.146Z,99326.67
2019-03-12T06:26:31.211Z,99323.58
2019-03-12T06:28:59.256Z,99325.70
2019-03-12T06:32:01.889Z,99325.84
2019-03-12T06:34:35.231Z,99325.60
2019-03-12T06:37:21.777Z,99319.17
2019-03-12T06:40:09.394Z,99326.80
2019-03-12T06:43:09.164Z,99318.03
2019-03-12T06:46:05.554Z,99321.02
2019-03-12T06:48:55.952Z,99318.30
2019-03-12T06:51:56.534Z,99319.38
2019-03-12T06:54:37.363Z,99318.38
2019-03-12T06:57:11.644Z,99316.76
2019-03-12T06:59:45.887Z,99312.71
2019-03-12T07:02:25.623Z,99309.05
2019-03-12T07:05:01.640Z,99309.62
2019-03-12T07:07:58.162Z,99298.56
2019-03-12T07:10:37.711Z,99302.92
2019-03-12T07:13:14.056Z,99292.97
2019-03-12T07:16:13.788Z,99290.84
2019-03-12T07:19:07.167Z,99294.16
2019-03-12T07:22:07.082Z,99292.37
2019-03-12T07:24:40.147Z,99286.81
2019-03-12T07:27:36.949Z,99290.77
2019-03-12T07:30:23.838Z,99292.34
2019-03-12T07:33:26.799Z,99276.00
2019-03-12T07:36:06.085Z,99271.95
2019-03-12T07:38:40.135Z,99272.19
2019-03-12T07:41:32.737Z,99270.73
2019-03-12T07:44:23.438Z,99266.69
2019-03-12T07:47:13.841Z,99264.83
2019-03-12T07:49:51.796Z,99255.71
2019-03-12T07:52:48.698Z,99254.90
2019-03-12T07:55:35.376Z,99249.44
2019-03-12T07:58:36.167Z,99241.16
2019-03-12T08:01:13.936Z,99244.53
2019-03-12T08:04:00.318Z,99237.03
2019-03-12T08:06:43.635Z,99232.24
2019-03-12T08:09:34.040Z,99234.80
2019-03-12T08:12:18.256Z,99213.09
2019-03-12T08:15:22.616Z,99200.34
2019-03-12T08:18:01.156Z,99194.81
2019-03-12T08:20:48.728Z,99194.52
2019-03-12T08:23:24.065Z,99192.31
2019-03-12T08:25:57.551Z,99195.34
2019-03-12T08:28:45.403Z,99194.89
2019-03-12T08:31:45.789Z,99181.61
2019-03-12T08:34:33.151Z,99176.27
2019-03-12T08:37:20.978Z,99168.97
2019-03-12T08:40:03.488Z,99159.20
2019-03-12T08:42:55.067Z,99153.73
2019-03-12T08:45:34.035Z,99152.28
2019-03-12T08:48:28.469Z,99149.14
2019-03-12T08:51:16.391Z,99149.89
2019-03-12T08:54:13.714Z,99144.63
2019-03-12T08:57:19.984Z,99142.19
2019-03-12T09:00:06.855Z,99137.09
2019-03-12T09:03:01.428Z,99145.91
2019-03-12T09:05:50.553Z,99144.86
2019-03-12T09:08:32.207Z,99131.41
2019-03-12T09:11:18.380Z,99132.57
2019-03-12T09:14:20.949Z,99131.39
2019-03-12T09:17:23.975Z,99127.09
2019-03-12T09:20:20.771Z,99125.20
2019-03-12T09:23:11.696Z,99115.94
2019-03-12T09:26:18.157Z,99115.97
2019-03-12T09:29:04.586Z,99102.66
2019-03-12T09:31:38.112Z,99097.15
2019-03-12T09:34:24.481Z,99100.84
2019-03-12T09:37:06.029Z,99092.24
2019-03-12T09:39:59.719Z,99091.65
2019-03-12T09:42:47.163Z,99103.48
2019-03-12T09:45:35.904Z,99076.08
2019-03-12T09:48:17.364Z,99071.41
2019-03-12T09:50:53.961Z,99068.13
2019-03-12T09:53:31.954Z,99058.99
2019-03-12T09:56:08.391Z,99051.08
2019-03-12T09:59:05.070Z,99043.77
2019-03-12T10:01:48.483Z,99041.13
2019-03-12T10:04:36.367Z,99038.25
2019-03-12T10:07:36.396Z,99029.95
2019-03-12T10:10:25.951Z,99019.42
2019-03-12T10:13:29.071Z,99013.17
2019-03-12T10:16:25.201Z,98999.09
2019-03-12T10:19:15.990Z,98988.70
2019-03-12T10:21:54.739Z,98988.54
2019-03-12T10:24:54.449Z,98991.41
2019-03-12T10:27:48.528Z,98978.39
2019-03-12T10:30:46.671Z,98978.93
2019-03-12T10:33:47.686Z,98966.78
2019-03-12T10:36:38.854Z,98972.59
2019-03-12T10:40:07.151Z,98967.91
2019-03-12T10:43:08.464Z,98965.86
2019-03-12T10:45:44.695Z,98948.13
2019-03-12T10:48:13.251Z,98946.73
2019-03-12T10:50:41.425Z,98945.34
2019-03-12T10:53:09.685Z,98939.47
2019-03-12T10:55:38.040Z,98937.59
2019-03-12T10:58:06.275Z,98933.19
2019-03-12T11:00:36.973Z,98931.17
2019-03-12T11:03:04.989Z,98918.33
2019-03-12T11:05:45.498Z,98917.31
2019-03-12T11:08:06.706Z,98909.21
2019-03-12T11:10:35.546Z,98901.03
2019-03-12T11:13:03.821Z,98894.95
2019-03-12T11:15:32.507Z,98887.52
2019-03-12T11:18:00.767Z,98876.77
2019-03-12T11:20:29.201Z,98878.92
2019-03-12T11:22:57.716Z,98875.61
2019-03-12T11:25:27.612Z,98866.07
2019-03-12T11:27:56.133Z,98861.01
2019-03-12T11:30:24.111Z,98860.98
2019-03-12T11:32:53.822Z,98860.41
2019-03-12T11:35:21.974Z,98862.30
2019-03-12T11:37:50.698Z,98847.89
2019-03-12T11:40:20.234Z,98848.15
2019-03-12T11:42:48.245Z,98841.41
2019-03-12T11:45:19.915Z,98832.34
2019-03-12T11:47:49.206Z,98829.98
2019-03-12T11:50:20.313Z,98822.09
2019-03-12T11:52:54.707Z,98824.37
2019-03-12T11:55:18.617Z,98818.80
2019-03-12T11:57:46.875Z,98816.28
2019-03-12T12:00:30.943Z,98803.98
2019-03-12T12:03:00.526Z,98802.66
2019-03-12T12:05:28.875Z,98784.20
2019-03-12T12:07:57.314Z,98776.89
2019-03-12T12:10:25.507Z,98770.81
2019-03-12T12:12:53.764Z,98767.30
2019-03-12T12:15:24.528Z,98752.86
2019-03-12T12:17:52.661Z,98750.77
2019-03-12T12:20:29.649Z,98739.48
2019-03-12T12:22:50.809Z,98732.49
2019-03-12T12:25:18.931Z,98725.28
2019-03-12T12:27:47.468Z,98714.78
2019-03-12T12:30:17.365Z,98704.52
2019-03-12T12:32:45.455Z,98691.50
2019-03-12T12:35:15.412Z,98695.49
2019-03-12T12:37:48.223Z,98681.83
2019-03-12T12:40:16.336Z,98671.26
2019-03-12T12:42:44.592Z,98656.77
2019-03-12T12:45:17.051Z,98646.27
2019-03-12T12:47:45.105Z,98640.05
2019-03-12T12:50:14.642Z,98629.39
2019-03-12T12:52:42.787Z,98628.95
2019-03-12T12:55:13.007Z,98617.42
2019-03-12T12:57:41.338Z,98612.67
2019-03-12T13:00:14.398Z,98601.48
2019-03-12T13:02:42.617Z,98602.76
2019-03-12T13:05:11.713Z,98594.94
2019-03-12T13:07:39.881Z,98588.89
2019-03-12T13:10:11.499Z,98581.10
2019-03-12T13:12:41.278Z,98577.84
2019-03-12T13:15:09.521Z,98563.72
2019-03-12T13:17:37.564Z,98566.98
2019-03-12T13:20:06.870Z,98555.27
2019-03-12T13:22:34.954Z,98548.42
2019-03-12T13:25:03.740Z,98544.08
2019-03-12T13:27:41.520Z,98533.86
2019-03-12T13:30:02.826Z,98531.95
2019-03-12T13:32:32.985Z,98511.28
2019-03-12T13:35:01.149Z,98514.28
2019-03-12T13:37:29.368Z,98508.56
2019-03-12T13:39:58.470Z,98500.78
2019-03-12T13:42:26.669Z,98505.09
2019-03-12T13:44:54.802Z,98502.03
2019-03-12T13:47:28.523Z,98483.96
2019-03-12T13:49:52.919Z,98477.37
2019-03-12T13:52:22.106Z,98473.50
2019-03-12T13:54:50.621Z,98466.05
2019-03-12T13:57:18.874Z,98455.09
2019-03-12T13:59:47.404Z,98454.82
2019-03-12T14:02:16.762Z,98444.93
2019-03-12T14:04:45.205Z,98440.02
2019-03-12T14:07:14.575Z,98441.69
2019-03-12T14:09:42.637Z,98428.52
2019-03-12T14:12:11.991Z,98421.04
2019-03-12T14:14:40.201Z,98418.07
2019-03-12T14:17:08.633Z,98407.94
2019-03-12T14:19:37.051Z,98396.81
2019-03-12T14:22:07.918Z,98401.17
2019-03-12T14:24:35.817Z,98393.46
2019-03-12T14:27:03.921Z,98383.40
2019-03-12T14:29:32.165Z,98371.22
2019-03-12T14:32:00.403Z,98370.34
2019-03-12T14:34:28.604Z,98369.22
2019-03-12T14:36:57.272Z,98353.82
2019-03-12T14:39:25.316Z,98351.52
2019-03-12T14:41:53.473Z,98350.14
2019-03-12T14:44:21.449Z,98345.09
2019-03-12T14:46:49.514Z,98335.50
2019-03-12T14:49:17.719Z,98327.31
2019-03-12T14:52:25.170Z,98311.97
2019-03-12T14:54:53.558Z,98306.95
2019-03-12T14:57:21.954Z,98289.80
2019-03-12T14:59:50.474Z,98290.73
2019-03-12T15:02:19.380Z,98273.66
2019-03-12T15:04:50.592Z,98260.42
2019-03-12T15:07:20.716Z,98253.98
2019-03-12T15:09:48.763Z,98246.41
2019-03-12T15:12:17.078Z,98241.16
2019-03-12T15:14:45.770Z,98240.50
2019-03-12T15:17:14.141Z,98240.03
2019-03-12T15:19:44.161Z,98227.13
2019-03-12T15:22:12.993Z,98215.66
2019-03-12T15:24:41.016Z,98204.34
2019-03-12T15:27:09.968Z,98201.75
2019-03-12T15:29:38.096Z,98199.98
2019-03-12T15:32:06.137Z,98192.77
2019-03-12T15:34:34.486Z,98185.20
2019-03-12T15:37:02.552Z,98174.17
2019-03-12T15:39:30.958Z,98174.13
2019-03-12T15:41:59.136Z,98167.15
2019-03-12T15:44:27.340Z,98162.59
2019-03-12T15:46:55.783Z,98161.63
2019-03-12T15:49:23.990Z,98162.20
2019-03-12T15:51:52.182Z,98158.23
2019-03-12T15:54:20.528Z,98151.92
2019-03-12T15:56:48.818Z,98132.94
2019-03-12T15:59:17.731Z,98127.90
2019-03-12T16:01:46.053Z,98128.33
2019-03-12T16:04:14.071Z,98119.28
2019-03-12T16:06:42.285Z,98112.45
2019-03-12T16:09:12.819Z,98108.13
2019-03-12T16:11:41.315Z,98097.41
2019-03-12T16:14:09.382Z,98096.25
2019-03-12T16:16:37.643Z,98093.73
2019-03-12T16:19:05.826Z,98077.72
2019-03-12T16:21:33.844Z,98074.09
2019-03-12T16:24:01.908Z,98075.14
2019-03-12T16:26:30.180Z,98075.75
2019-03-12T16:28:58.346Z,98076.52
2019-03-12T16:31:26.395Z,98073.66
2019-03-12T16:33:55.513Z,98065.64
2019-03-12T16:36:23.655Z,98067.60
2019-03-12T16:38:52.097Z,98053.58
2019-03-12T16:41:20.358Z,98049.36
2019-03-12T16:43:48.895Z,98037.36
2019-03-12T16:46:17.067Z,98029.98
2019-03-12T16:48:45.273Z,98027.77
2019-03-12T16:51:13.703Z,98021.10
2019-03-12T16:53:42.003Z,98022.06
2019-03-12T16:56:10.117Z,98009.41
2019-03-12T16:58:38.516Z,98005.79
2019-03-12T17:01:06.519Z,97996.08
2019-03-12T17:03:34.807Z,97988.57
2019-03-12T17:06:05.969Z,97980.63
2019-03-12T17:08:34.196Z,97973.73
2019-03-12T17:11:03.145Z,97976.17
2019-03-12T17:13:31.802Z,97958.66
2019-03-12T17:16:01.215Z,97957.35
2019-03-12T17:18:29.519Z,97944.36
2019-03-12T17:20:57.724Z,97933.86
2019-03-12T17:23:26.105Z,97932.69
2019-03-12T17:25:55.545Z,97924.28
2019-03-12T17:28:24.358Z,97924.75
2019-03-12T17:30:53.133Z,97913.41
2019-03-12T17:33:23.199Z,97913.05
2019-03-12T17:35:52.661Z,97912.45
2019-03-12T17:38:21.464Z,97904.86
2019-03-12T17:40:49.778Z,97899.48
2019-03-12T17:43:19.109Z,97889.31
2019-03-12T17:45:50.925Z,97888.98
2019-03-12T17:48:23.345Z,97887.56
2019-03-12T17:50:51.609Z,97881.73
2019-03-12T17:53:19.832Z,97869.34
2019-03-12T17:55:48.124Z,97867.80
2019-03-12T17:58:16.784Z,97869.20
2019-03-12T18:00:45.162Z,97863.61
2019-03-12T18:03:13.515Z,97850.64
2019-03-12T18:05:41.913Z,97851.92
2019-03-12T18:08:10.115Z,97840.45
2019-03-12T18:10:38.701Z,97836.25
2019-03-12T18:13:07.235Z,97833.45
2019-03-12T18:15:35.141Z,97832.87
2019-03-12T18:18:03.337Z,97824.44
2019-03-12T18:20:31.541Z,97821.25
2019-03-12T18:23:01.413Z,97813.09
2019-03-12T18:25:29.665Z,97811.91
2019-03-12T18:27:57.955Z,97801.03
2019-03-12T18:30:26.038Z,97807.69
2019-03-12T18:32:54.594Z,97798.01
2019-03-12T18:35:22.707Z,97795.67
2019-03-12T18:37:50.878Z,97799.86
2019-03-12T18:40:19.178Z,97798.67
2019-03-12T18:42:47.286Z,97788.17
2019-03-12T18:45:20.367Z,97798.19
2019-03-12T18:47:48.619Z,97798.91
2019-03-12T18:50:16.708Z,97792.36
2019-03-12T18:52:44.658Z,97789.92
2019-03-12T18:55:52.629Z,97789.20
2019-03-12T18:58:20.651Z,97781.52
2019-03-12T19:00:49.228Z,97774.15
2019-03-12T19:03:19.368Z,97780.11
2019-03-12T19:05:47.473Z,97759.30
2019-03-12T19:08:15.715Z,97754.63
2019-03-12T19:10:44.144Z,97751.73
2019-03-12T19:13:12.264Z,97742.28
2019-03-12T19:15:40.327Z,97739.72
2019-03-12T19:18:08.311Z,97730.47
2019-03-12T19:20:38.634Z,97730.59
2019-03-12T19:23:06.686Z,97709.82
2019-03-12T19:25:38.010Z,97703.89
2019-03-12T19:28:04.690Z,97695.59
2019-03-12T19:30:34.036Z,97694.91
2019-03-12T19:33:12.037Z,97700.25
2019-03-12T19:35:49.611Z,97702.13
2019-03-12T19:38:17.811Z,97697.68
2019-03-12T19:40:46.154Z,97698.49
2019-03-12T19:43:16.645Z,97697.58
2019-03-12T19:45:44.784Z,97693.85
2019-03-12T19:48:12.937Z,97691.98
2019-03-12T19:50:41.111Z,97687.30
2019-03-12T19:53:09.143Z,97689.52
2019-03-12T19:55:40.834Z,97685.06
2019-03-12T19:58:08.910Z,97678.32
2019-03-12T20:00:37.285Z,97669.20
2019-03-12T20:03:10.881Z,97669.11
2019-03-12T20:05:35.785Z,97659.30
2019-03-12T20:08:03.966Z,97650.98
2019-03-12T20:11:18.765Z,97639.79
2019-03-12T20:14:57.235Z,97636.64
2019-03-12T20:18:30.199Z,97632.09
2019-03-12T20:22:10.608Z,97634.08
2019-03-12T20:25:48.115Z,97608.75
2019-03-12T20:29:34.264Z,97600.48
2019-03-12T20:33:03.525Z,97576.08
2019-03-12T20:36:30.885Z,97584.39
2019-03-12T20:40:18.085Z,97578.41
2019-03-12T20:43:41.471Z,97574.11
2019-03-12T20:47:11.538Z,97566.75
2019-03-12T20:50:49.974Z,97553.13
2019-03-12T20:54:24.797Z,97534.90
2019-03-12T20:57:59.365Z,97531.77
2019-03-12T21:01:45.415Z,97517.77
2019-03-12T21:05:16.234Z,97508.79
2019-03-12T21:08:46.397Z,97505.86
2019-03-12T21:12:04.677Z,97501.09
2019-03-12T21:15:30.032Z,97499.09
2019-03-12T21:18:44.640Z,97493.34
2019-03-12T21:22:03.903Z,97474.80
2019-03-12T21:25:22.359Z,97465.73
2019-03-12T21:28:16.366Z,97463.61
2019-03-12T21:30:44.372Z,97446.02
2019-03-12T21:33:15.625Z,97442.61
2019-03-12T21:35:47.451Z,97434.20
2019-03-12T21:38:15.660Z,97428.94
2019-03-12T21:40:44.100Z,97418.28
2019-03-12T21:43:12.657Z,97413.96
2019-03-12T21:45:42.431Z,97408.00
2019-03-12T21:48:22.167Z,97399.95
2019-03-12T21:50:50.712Z,97397.98
2019-03-12T21:53:19.196Z,97393.45
2019-03-12T21:55:47.197Z,97391.64
2019-03-12T21:58:15.373Z,97399.66
2019-03-12T22:00:45.397Z,97382.75
2019-03-12T22:03:16.210Z,97371.72
2019-03-12T22:05:43.731Z,97355.95
2019-03-12T22:08:12.311Z,97349.52
2019-03-12T22:10:40.444Z,97349.44
2019-03-12T22:13:08.691Z,97348.86
2019-03-12T22:15:36.995Z,97366.12
2019-03-12T22:18:05.115Z,97353.53
2019-03-12T22:20:34.681Z,97349.75
2019-03-12T22:23:13.453Z,97349.48
2019-03-12T22:25:42.790Z,97346.44
2019-03-12T22:28:11.166Z,97345.72
2019-03-12T22:30:39.930Z,97342.22
2019-03-12T22:33:09.105Z,97333.67
2019-03-12T22:35:41.656Z,97339.32
2019-03-12T22:38:11.320Z,97330.30
2019-03-12T22:40:41.902Z,97329.69
2019-03-12T22:43:10.194Z,97326.48
2019-03-12T22:45:40.026Z,97318.03
2019-03-12T22:48:08.590Z,97305.18
2019-03-12T22:50:37.216Z,97305.32
2019-03-12T22:53:05.395Z,97309.81
2019-03-12T22:55:33.566Z,97302.92
2019-03-12T22:58:02.795Z,97302.53
2019-03-12T23:00:49.617Z,97310.10
2019-03-12T23:03:36.346Z,97309.30
2019-03-12T23:06:23.373Z,97311.48
2019-03-12T23:09:10.064Z,97313.80
2019-03-12T23:11:40.230Z,97330.05
2019-03-12T23:14:08.677Z,97333.92
2019-03-12T23:16:37.662Z,97344.68
2019-03-12T23:19:05.914Z,97344.40
2019-03-12T23:21:34.468Z,97360.55
2019-03-12T23:24:02.567Z,97368.69
2019-03-12T23:26:33.931Z,97380.27
2019-03-12T23:29:02.184Z,97404.80
2019-03-12T23:31:30.363Z,97386.03
2019-03-12T23:33:58.575Z,97404.87
2019-03-12T23:36:26.613Z,97393.36
2019-03-12T23:38:55.051Z,97406.34
2019-03-12T23:41:23.388Z,97404.94
2019-03-12T23:43:51.649Z,97399.80
2019-03-12T23:46:20.136Z,97410.97
2019-03-12T23:48:48.202Z,97416.55
2019-03-12T23:51:16.369Z,97428.45
2019-03-12T23:53:46.233Z,97442.78
2019-03-12T23:56:14.282Z,97440.41
2019-03-12T23:58:42.429Z,97440.02
